Montevideo, MN (56265)

8:04 PM CDT on July 25, 2014 (GMT -0500)
Near Chinhinta Park (KMNMONTE4) Elev 1024 ft | 44.94 °N, 95.72 °W | Change Station

Current weather conditions updated 12 seconds ago

Overcast
Overcast
78.1 °F
Feels Like 80 °F
N
0.0
Wind Variable Wind from WSW
Gusts 2.0 mph

Tomorrow is forecast to be Warmer than today. Afternoon thunderstorms.

Today
High -- | Low -- °F
--% Chance of Precip.
Yesterday
High -- | Low -- °F
Precip. -- in
6:00 AM 8:57 PM
Waning Crescent, 1% visible
Pressure 29.78 in
Visibility 10.0 miles
Clouds Scattered Clouds 2100 ft
Overcast 4000 ft
Heat Index 80 °F
Dew Point 71 °F
Humidity 80%
Rainfall 0.25 in
Snow Depth Not available.
UV 0 out of 12
Pollen 1.50 out of 12
Air Quality Not available.
Flu Activity Not available.
METAR KMVE 260054Z AUTO 36005KT 10SM SCT021 OVC040 26/22 A2978 RMK AO2

More Conditions Fewer Conditions

Pressure 29.78 in
Visibility 10.0 miles
Clouds Scattered Clouds 2100 ft
Overcast 4000 ft
Heat Index 80 °F
Dew Point 71 °F
Humidity 80%
Rainfall 0.25 in
Snow Depth Not available.
UV 0 out of 12
Pollen 1.50 out of 12
Air Quality Not available.
Flu Activity Not available.
METAR KMVE 260054Z AUTO 36005KT 10SM SCT021 OVC040 26/22 A2978 RMK AO2

More Conditions Fewer Conditions

10-Day Weather Forecast

Almanac

Astronomy

Jul. 25, 2014 Rise Set
Actual Time 6:00 AM CDT 8:57 PM CDT
Civil Twilight 5:26 AM CDT 9:31 PM CDT
Nautical Twilight 4:41 AM CDT 10:15 PM CDT
Astronomical Twilight 3:49 AM CDT 11:08 PM CDT
Moon 5:02 AM CDT (7/25) 7:52 PM CDT (7/25)
Length of Visible Light 16h 05m
Length of Day
14h 56m
Tomorrow will be 2m 10s shorter.
Waning Crescent, 1% of the Moon is Illuminated
Today
Waning Crescent
Jul 26
New
Aug 3
First Quarter
Aug 10
Full
Aug 17
Last Quarter

Today's Extremes

State Highs State Lows

Community

WunderPhotos

Upload Photos

1,737,455 photos uploaded!

Nearby

Snow Depth

Station Depth Elevation
No new snow has been reported.

Earthquake Activity

City Distance Mag. Time & Date
No recent earthquake activity has been reported nearby.
Minimum magnitude displayed is 2.5.

Coastal Water Temperatures

Place Temperature
No Stations Reporting

Nearby Weather Stations

Station Location Temp. Heat Index Dew Point Humidity Wind Precip. Elev Updated Type
Near Chinhinta Park, Montevideo, MN 78.1 °F 80 °F 71 °F 80% WSW  at  0.0 mph 0.00 in / hr 1024 ft 8:03 PM CDT Rapid Fire
Near Windom Park, Montevideo, MN 79.2 °F 83 °F 73 °F 82% NNW  at  0.0 mph 0.00 in / hr 1004 ft 8:04 PM CDT Rapid Fire
Northwest Montevideo, Montevideo, MN 80.4 °F 85 °F 73 °F 79% West  at  3.2 mph - / hr 1043 ft 7:54 PM CDT Normal
SW of Prinsburg, Prinsburg, MN 79.5 °F 83 °F 72 °F 77% WNW  at  0.0 mph 0.00 in / hr 1071 ft 8:00 PM CDT Normal

Show More Stations Show Fewer Stations